Marshall, Washington
Current Conditions -  °F | °C
As of 9:53 PM on Saturday 20 Dec 2014 (Local Time) from KGEG Reporting Station
Overcast Overcast  
Wind Chill: 35°   Ceiling: 600
Heat Index: 42°   Visibility: 10mi
Dew Point: 41°   Wind: 14mph
Humidity: 96%   Direction: 180°S
Pressure: 29.51"   Gusts: NA
Location:  47.56°N, 117.5°W
Report Text: KGEG 210553Z 18012KT 10SM OVC006 06/05 A2951 RMK AO2 RAE50 SLP003 P0003 60036 T00560050 10056 20044 56024
Loading
Personal Weather Stations






























Interactive Weather Map New forecast layout! Learn more

10-Day Weather Forecast

Advertisements
Track Severe Weather on mobile